< Typhoon 200521 2005 Season Typhoon 200523 >
Typhoon 200522 (TEMBIN)
General InformationTrack Information on Google MapsDetailed Wind InformationAccess Analytics MapList of All Images || Disaster Info.WeblogTrackbackTyphoon FrontResourceGoogle EarthGE AnimationAtom FeedGeoJSON
Detalied Best Track (Time Zone = UTC)
Year Month Day Hour Lat. Long. Pressure (hPa) Wind (kt) Class Image Chart
2005 11 6 12 8.2 140.7 1008 0 2 Image Chart
2005 11 6 18 9.6 140.5 1008 0 2 Image Chart
2005 11 7 00 10.1 140.4 1008 0 2 Image Chart
2005 11 7 06 11.5 138.5 1006 0 2 Image Chart
2005 11 7 12 12.2 137.5 1006 0 2 Image Chart
2005 11 7 18 12.4 137.0 1006 0 2 Image Chart
2005 11 8 00 12.5 136.5 1008 0 2 Image Chart
2005 11 8 06 12.5 135.6 1008 0 2 Image Chart
2005 11 8 12 12.5 134.0 1008 0 2 Image Chart
2005 11 8 18 12.6 132.5 1008 0 2 Image Chart
2005 11 9 00 12.8 130.8 1008 0 2 Image Chart
2005 11 9 06 12.8 129.3 1006 0 2 Image Chart
2005 11 9 12 12.8 127.8 1008 0 2 Image Chart
2005 11 9 18 14.6 126.1 1006 0 2 Image Chart
2005 11 10 00 14.9 124.5 1002 35 3 Image Chart
2005 11 10 06 15.3 122.7 1002 35 3 Image Chart
2005 11 10 12 15.8 121.8 1004 0 2 Image Chart
2005 11 10 18 16.6 120.0 1004 0 2 Image Chart
2005 11 11 00 16.7 119.7 1004 0 2 Image Chart
2005 11 11 06 18.0 119.0 1004 0 2 Image Chart
2005 11 11 12 19.1 118.0 1008 0 2 Image Chart
2005 11 11 18 19.5 117.3 1010 0 2 Image Chart
2005 11 12 00 19.4 116.2 1010 0 2 Image Chart
2005 11 12 06 18.7 115.3 1008 0 2 Image Chart
2005 11 12 12 17.7 114.9 1008 0 2 Image Chart
Japan Meteorological Agency Best Track Data | Correction Date : 2005-12-19
< Typhoon 200521 2005 Season Typhoon 200523 >

Help